Time;durP1;ratioP1;P1;durP2;ratioP2;P2;SDS_P1;SDS_P2;PMS_P1;PMS_P2;Temp;Humidity;BMP_temperature;BMP_pressure;BME280_temperature;BME280_humidity;BME280_pressure;Samples;Min_cycle;Max_cycle;Signal;HPM_P1;HPM_P2
2022/01/18 00:00:10;;;;;;;40.72;5.55;;;1.20;93.80;;;;;;5056697;28;20049;-85
2022/01/18 00:02:39;;;;;;;60.35;7.05;;;1.20;93.80;;;;;;5053349;28;20057;-85
2022/01/18 00:05:14;;;;;;;74.50;6.97;;;1.20;93.50;;;;;;5054935;28;20069;-85
2022/01/18 00:07:41;;;;;;;46.33;7.47;;;1.10;93.70;;;;;;5037620;28;20085;-85
2022/01/18 00:10:10;;;;;;;34.88;5.22;;;1.10;93.70;;;;;;5072542;28;20040;-84
2022/01/18 00:23:53;;;;;;;123.97;9.60;;;1.00;93.40;;;;;;5099226;28;20408;-84
2022/01/18 00:26:21;;;;;;;99.97;8.88;;;1.00;93.40;;;;;;5101250;28;20607;-85
2022/01/18 00:28:56;;;;;;;53.90;6.95;;;1.00;93.20;;;;;;5099061;27;20110;-85
2022/01/18 00:39:15;;;;;;;142.95;21.95;;;0.90;93.20;;;;;;5103961;28;20147;-85
2022/01/18 00:41:42;;;;;;;89.18;18.05;;;0.90;93.40;;;;;;5093492;28;20579;-85
2022/01/18 00:44:10;;;;;;;70.45;15.63;;;0.80;93.30;;;;;;5092394;28;20048;-85
2022/01/18 00:46:39;;;;;;;72.65;8.48;;;0.80;93.20;;;;;;5101871;28;20053;-84
2022/01/18 00:49:07;;;;;;;161.13;9.35;;;0.80;93.00;;;;;;5099654;28;20081;-85
2022/01/18 00:51:40;;;;;;;138.65;7.72;;;0.80;92.80;;;;;;5094476;28;20562;-84
2022/01/18 00:54:21;;;;;;;65.38;5.82;;;0.80;92.70;;;;;;5095836;28;20056;-86
2022/01/18 00:56:52;;;;;;;32.42;4.72;;;0.70;92.70;;;;;;5096516;28;20136;-84
2022/01/18 00:59:21;;;;;;;46.25;4.95;;;0.70;92.60;;;;;;5099036;27;20143;-83
2022/01/18 01:01:51;;;;;;;57.72;5.47;;;0.60;92.60;;;;;;5096948;27;20507;-84
2022/01/18 01:04:24;;;;;;;78.72;6.43;;;0.60;92.60;;;;;;5095649;28;20511;-83
2022/01/18 01:06:54;;;;;;;22.73;5.63;;;0.50;92.70;;;;;;5101388;27;20044;-83
2022/01/18 01:09:21;;;;;;;45.13;6.72;;;0.50;92.60;;;;;;5094492;28;20055;-83
2022/01/18 01:11:51;;;;;;;18.00;5.30;;;0.50;92.60;;;;;;5092623;28;20055;-83
2022/01/18 01:14:23;;;;;;;15.65;5.13;;;0.40;92.60;;;;;;5093840;28;20132;-83
2022/01/18 01:17:12;;;;;;;65.75;8.20;;;0.40;92.60;;;;;;5097542;28;20500;-84
2022/01/18 01:36:00;;;;;;;90.05;5.43;;;0.20;93.40;;;;;;5100145;27;20051;-84
2022/01/18 01:44:05;;;;;;;22.80;4.95;;;0.20;93.90;;;;;;5102496;28;20056;-84
2022/01/18 01:46:34;;;;;;;92.00;6.18;;;0.20;94.00;;;;;;5092868;28;20052;-84
2022/01/18 01:49:03;;;;;;;157.68;8.95;;;0.10;94.00;;;;;;5102679;28;20044;-84
2022/01/18 01:51:30;;;;;;;136.52;9.45;;;0.10;93.70;;;;;;5102835;28;20057;-86
2022/01/18 01:54:07;;;;;;;267.95;13.77;;;0.10;93.70;;;;;;5096652;28;20797;-84
2022/01/18 01:56:34;;;;;;;56.20;5.70;;;0.10;93.90;;;;;;5091293;28;20056;-83
2022/01/18 01:59:03;;;;;;;64.10;7.15;;;0.10;94.20;;;;;;5093589;27;20150;-84
2022/01/18 02:01:42;;;;;;;150.13;9.18;;;0.10;94.00;;;;;;5093014;28;20495;-84
2022/01/18 02:04:10;;;;;;;136.48;8.15;;;0.10;94.00;;;;;;5103958;27;20062;-84
2022/01/18 02:06:40;;;;;;;18.98;5.15;;;0.10;94.20;;;;;;5101553;27;20732;-84
2022/01/18 02:09:07;;;;;;;75.38;6.90;;;0.10;94.30;;;;;;5101079;28;20045;-84
2022/01/18 02:11:34;;;;;;;55.08;6.13;;;0.10;94.20;;;;;;5099547;28;20058;-84
2022/01/18 02:14:01;;;;;;;24.88;4.32;;;0.10;94.10;;;;;;5096797;27;20982;-84
2022/01/18 02:22:13;;;;;;;171.98;12.80;;;0.20;94.10;;;;;;5100137;28;20057;-84
2022/01/18 02:24:40;;;;;;;161.80;11.52;;;0.30;94.50;;;;;;5093216;28;20108;-84
2022/01/18 02:27:07;;;;;;;157.98;13.07;;;0.30;94.90;;;;;;5103597;28;20186;-84
2022/01/18 02:29:34;;;;;;;27.50;6.78;;;0.40;95.20;;;;;;5096881;28;20056;-84
2022/01/18 02:32:00;;;;;;;201.30;13.77;;;0.50;95.20;;;;;;5096632;28;20049;-84
2022/01/18 02:34:27;;;;;;;114.75;10.13;;;0.50;95.30;;;;;;5093670;28;20075;-84
2022/01/18 02:36:54;;;;;;;57.65;7.55;;;0.60;95.40;;;;;;5097033;28;20083;-84
2022/01/18 02:39:26;;;;;;;21.13;6.90;;;0.60;95.40;;;;;;5094443;28;20052;-84
2022/01/18 02:42:01;;;;;;;174.48;13.75;;;0.70;95.40;;;;;;5094807;28;20053;-84
2022/01/18 02:44:30;;;;;;;27.70;7.35;;;0.70;95.30;;;;;;5097414;28;20064;-84
2022/01/18 02:46:57;;;;;;;67.95;8.70;;;0.80;95.50;;;;;;5100348;28;20048;-84
2022/01/18 02:49:24;;;;;;;62.72;8.10;;;0.80;95.40;;;;;;5097075;28;20216;-84
2022/01/18 02:51:52;;;;;;;92.88;8.13;;;0.90;95.20;;;;;;5098114;28;20068;-84
2022/01/18 02:54:19;;;;;;;58.70;8.00;;;0.90;95.10;;;;;;5097700;28;20052;-84
2022/01/18 02:56:54;;;;;;;24.00;6.93;;;1.00;95.10;;;;;;5099366;28;20044;-84
2022/01/18 02:59:50;;;;;;;83.05;9.98;;;1.00;95.10;;;;;;5094422;28;20511;-84
2022/01/18 03:05:14;;;;;;;40.25;7.00;;;1.10;95.50;;;;;;5100868;27;20048;-84
2022/01/18 03:07:42;;;;;;;62.45;9.18;;;1.10;95.80;;;;;;5095266;27;20121;-84
2022/01/18 03:10:11;;;;;;;169.45;14.18;;;1.20;95.70;;;;;;5093934;28;20055;-84
2022/01/18 03:12:40;;;;;;;36.13;7.65;;;1.20;95.70;;;;;;5092180;28;20887;-85
2022/01/18 03:15:09;;;;;;;138.38;10.63;;;1.20;95.80;;;;;;5093488;28;20067;-84
2022/01/18 03:17:36;;;;;;;43.55;7.65;;;1.30;95.80;;;;;;5091748;28;20053;-84
2022/01/18 03:20:05;;;;;;;74.78;9.27;;;1.30;95.80;;;;;;5094859;27;20139;-84
2022/01/18 03:22:32;;;;;;;18.52;7.85;;;1.40;95.60;;;;;;5099791;28;20060;-84
2022/01/18 03:25:26;;;;;;;220.30;14.40;;;1.40;95.50;;;;;;5096978;28;20041;-84
2022/01/18 03:28:04;;;;;;;23.33;7.45;;;1.50;95.50;;;;;;5093104;27;20102;-84
2022/01/18 03:30:42;;;;;;;26.08;7.80;;;1.50;95.80;;;;;;5097842;28;20107;-85
2022/01/18 03:33:11;;;;;;;178.18;14.18;;;1.60;95.80;;;;;;5094185;28;20059;-84
2022/01/18 03:35:39;;;;;;;47.85;9.63;;;1.60;95.80;;;;;;5095058;28;20058;-84
2022/01/18 03:38:06;;;;;;;165.60;13.88;;;1.60;95.90;;;;;;5095360;27;20371;-84
2022/01/18 03:40:33;;;;;;;59.95;10.43;;;1.70;96.00;;;;;;5091945;28;20060;-85
2022/01/18 03:43:01;;;;;;;150.63;13.35;;;1.70;96.20;;;;;;5099754;28;20052;-85
2022/01/18 03:45:32;;;;;;;26.80;8.90;;;1.80;96.40;;;;;;5094539;28;20521;-85
2022/01/18 03:48:03;;;;;;;60.90;9.63;;;1.80;96.40;;;;;;5096570;28;20698;-84
2022/01/18 03:50:30;;;;;;;26.30;8.18;;;1.90;96.30;;;;;;5095123;28;20128;-84
2022/01/18 03:52:57;;;;;;;50.53;9.27;;;1.90;96.40;;;;;;5098806;28;20063;-84
2022/01/18 03:55:24;;;;;;;44.53;9.48;;;1.90;96.30;;;;;;5095790;28;20045;-84
2022/01/18 03:57:50;;;;;;;357.60;19.15;;;2.00;96.30;;;;;;5091693;28;20979;-84
2022/01/18 04:00:26;;;;;;;28.05;9.00;;;2.00;96.30;;;;;;5093748;28;20048;-85
2022/01/18 04:02:54;;;;;;;152.23;15.45;;;2.10;96.30;;;;;;5098830;28;20110;-84
2022/01/18 04:05:25;;;;;;;32.55;9.52;;;2.10;96.40;;;;;;5102098;27;20060;-84
2022/01/18 04:07:55;;;;;;;239.10;15.95;;;2.10;96.30;;;;;;5099802;28;20062;-84
2022/01/18 04:10:21;;;;;;;243.10;16.02;;;2.10;96.20;;;;;;5102553;28;20052;-84
2022/01/18 04:12:48;;;;;;;114.47;12.98;;;2.20;96.30;;;;;;5099492;28;20052;-84
2022/01/18 04:15:17;;;;;;;155.32;13.50;;;2.20;96.30;;;;;;5096206;28;20851;-84
2022/01/18 04:26:54;;;;;;;203.65;15.10;;;2.40;96.40;;;;;;5095409;28;20443;-85
2022/01/18 04:31:02;;;;;;;140.90;12.82;;;2.40;96.50;;;;;;5095491;28;20079;-84
2022/01/18 04:33:29;;;;;;;45.13;9.45;;;2.50;96.50;;;;;;5100731;28;20044;-86
2022/01/18 04:35:56;;;;;;;110.38;12.55;;;2.50;96.40;;;;;;5095854;28;20045;-84
2022/01/18 04:38:23;;;;;;;271.95;17.73;;;2.50;96.40;;;;;;5104359;28;20052;-85
2022/01/18 04:40:50;;;;;;;39.45;9.45;;;2.50;96.40;;;;;;5106562;27;20511;-85
2022/01/18 04:43:43;;;;;;;149.00;13.05;;;2.60;96.50;;;;;;5097073;27;20051;-85
2022/01/18 04:48:55;;;;;;;68.72;9.75;;;2.60;96.40;;;;;;5093617;28;20055;-85
2022/01/18 04:51:25;;;;;;;148.52;12.38;;;2.60;96.40;;;;;;5096550;28;20059;-85
2022/01/18 04:53:56;;;;;;;271.48;19.20;;;2.70;96.30;;;;;;5096992;28;20098;-85
2022/01/18 04:59:06;;;;;;;33.70;8.80;;;2.70;96.30;;;;;;5101166;28;20052;-85
2022/01/18 05:01:34;;;;;;;47.03;8.73;;;2.70;96.20;;;;;;5104304;28;20048;-85
2022/01/18 05:04:01;;;;;;;300.52;18.92;;;2.70;96.20;;;;;;5092834;28;20048;-84
2022/01/18 05:06:28;;;;;;;130.88;10.85;;;2.80;96.20;;;;;;5094297;28;20143;-84
2022/01/18 05:08:57;;;;;;;132.43;12.02;;;2.80;96.30;;;;;;5091898;28;20435;-85
2022/01/18 05:11:26;;;;;;;65.82;10.85;;;2.80;96.40;;;;;;5092302;28;20517;-85
2022/01/18 05:19:23;;;;;;;74.10;9.90;;;2.80;96.60;;;;;;5092486;28;20060;-84
2022/01/18 05:24:30;;;;;;;104.47;12.05;;;2.90;96.60;;;;;;5092364;28;20511;-85
2022/01/18 05:26:58;;;;;;;260.98;17.83;;;2.90;96.50;;;;;;5095824;28;20057;-85
2022/01/18 05:29:26;;;;;;;271.60;16.40;;;2.90;96.40;;;;;;5094355;28;20049;-85
2022/01/18 05:31:56;;;;;;;82.60;10.23;;;2.90;96.50;;;;;;5094575;28;20041;-85
2022/01/18 05:34:23;;;;;;;106.47;10.02;;;2.90;96.40;;;;;;5094080;28;20044;-84
2022/01/18 05:36:50;;;;;;;65.85;9.13;;;2.90;96.40;;;;;;5092616;28;20387;-85
2022/01/18 05:39:17;;;;;;;101.22;10.68;;;2.90;96.40;;;;;;5093223;28;20098;-84
2022/01/18 05:41:45;;;;;;;249.38;16.88;;;2.90;96.30;;;;;;5099703;28;20083;-85
2022/01/18 05:44:14;;;;;;;231.32;10.75;;;3.00;96.30;;;;;;5096957;28;20430;-85
2022/01/18 05:46:41;;;;;;;152.75;8.55;;;3.00;96.40;;;;;;5097619;28;20131;-85
2022/01/18 05:49:08;;;;;;;253.88;12.20;;;3.00;96.60;;;;;;5094602;28;20917;-84
2022/01/18 05:51:37;;;;;;;84.82;7.40;;;3.00;96.70;;;;;;5098857;28;20032;-84
2022/01/18 05:54:05;;;;;;;178.38;9.95;;;3.00;96.80;;;;;;5094090;28;20059;-85
2022/01/18 05:56:36;;;;;;;159.20;11.23;;;3.10;96.90;;;;;;5095645;28;20084;-84
2022/01/18 05:59:05;;;;;;;44.75;7.38;;;3.10;96.90;;;;;;5102755;28;20048;-84
2022/01/18 06:01:35;;;;;;;106.70;11.77;;;3.10;96.90;;;;;;5103911;28;20083;-85
2022/01/18 06:09:15;;;;;;;91.70;6.45;;;3.10;96.90;;;;;;5095898;28;20056;-85
2022/01/18 06:11:42;;;;;;;48.38;5.50;;;3.10;97.00;;;;;;5105268;28;20048;-84
2022/01/18 06:14:09;;;;;;;49.88;6.88;;;3.10;97.00;;;;;;5101382;27;20049;-85
2022/01/18 06:16:35;;;;;;;72.82;5.30;;;3.10;97.00;;;;;;5099181;28;20095;-85
2022/01/18 06:19:03;;;;;;;31.83;4.57;;;3.10;96.90;;;;;;5094684;28;20140;-85
2022/01/18 06:21:29;;;;;;;32.92;4.88;;;3.20;96.90;;;;;;5097855;28;20053;-85
2022/01/18 06:23:56;;;;;;;51.60;5.32;;;3.20;96.70;;;;;;5103707;28;20056;-85
2022/01/18 06:26:23;;;;;;;202.38;12.48;;;3.20;96.70;;;;;;5104511;28;20049;-85
2022/01/18 06:28:49;;;;;;;69.53;7.57;;;3.20;96.60;;;;;;5095680;28;20136;-85
2022/01/18 06:31:23;;;;;;;28.05;6.63;;;3.10;96.60;;;;;;5095676;28;20072;-85
2022/01/18 06:33:57;;;;;;;106.35;9.35;;;3.10;96.60;;;;;;5095868;28;20052;-84
2022/01/18 06:36:28;;;;;;;90.03;8.60;;;3.10;96.60;;;;;;5104958;28;20048;-85
2022/01/18 06:38:59;;;;;;;156.13;12.18;;;3.10;96.60;;;;;;5101686;28;20102;-85
2022/01/18 06:41:38;;;;;;;80.03;8.45;;;3.10;96.60;;;;;;5095896;27;20071;-85
2022/01/18 06:44:05;;;;;;;148.38;11.32;;;3.00;96.70;;;;;;5095547;28;20033;-85
2022/01/18 06:46:41;;;;;;;168.00;13.20;;;3.10;96.70;;;;;;5107296;28;20048;-85
2022/01/18 06:49:16;;;;;;;122.75;11.88;;;3.00;96.80;;;;;;5100328;27;20190;-84
2022/01/18 06:51:45;;;;;;;66.05;8.80;;;3.00;96.80;;;;;;5099304;28;20098;-85
2022/01/18 06:54:18;;;;;;;66.60;9.02;;;3.00;96.90;;;;;;5099299;28;20075;-85
2022/01/18 06:56:53;;;;;;;56.85;8.80;;;3.00;96.90;;;;;;5099451;28;20088;-84
2022/01/18 06:59:35;;;;;;;100.50;11.32;;;3.10;96.90;;;;;;5105457;27;20052;-85
2022/01/18 07:02:12;;;;;;;82.25;9.05;;;3.00;96.90;;;;;;5094544;28;20047;-85
2022/01/18 07:05:47;;;;;;;;;;;;;;;;;;;;;
2022/01/18 07:08:30;;;;;;;77.72;8.85;;;3.00;96.80;;;;;;5095745;28;20049;-85
2022/01/18 07:11:02;;;;;;;49.42;7.55;;;3.00;96.80;;;;;;5096473;28;20057;-85
2022/01/18 07:13:46;;;;;;;85.45;9.52;;;3.00;96.80;;;;;;5095114;28;20535;-85
2022/01/18 07:16:21;;;;;;;152.20;10.65;;;3.00;96.70;;;;;;5100493;28;20056;-85
2022/01/18 07:19:04;;;;;;;89.82;7.22;;;2.90;96.70;;;;;;5103276;28;20060;-85
2022/01/18 07:21:54;;;;;;;82.15;7.20;;;2.90;96.60;;;;;;5097372;28;20059;-85
2022/01/18 07:24:39;;;;;;;22.92;5.57;;;2.90;96.70;;;;;;5099920;28;20102;-85
2022/01/18 07:27:17;;;;;;;88.63;7.00;;;2.80;96.80;;;;;;5095260;28;20052;-85
2022/01/18 07:29:57;;;;;;;113.05;9.13;;;2.90;96.90;;;;;;5103372;28;20132;-85
2022/01/18 07:32:28;;;;;;;41.47;6.07;;;2.90;96.80;;;;;;5093944;28;20922;-85
2022/01/18 07:35:12;;;;;;;31.20;5.68;;;2.80;96.80;;;;;;5096688;28;20048;-85
2022/01/18 07:37:41;;;;;;;21.40;6.55;;;2.90;96.90;;;;;;5095124;28;20880;-85
2022/01/18 07:40:10;;;;;;;134.57;10.02;;;2.90;96.90;;;;;;5103409;27;20040;-85
2022/01/18 07:43:06;;;;;;;127.18;9.82;;;2.90;96.80;;;;;;5099742;27;20056;-85
2022/01/18 07:45:50;;;;;;;106.53;7.85;;;2.90;96.70;;;;;;5103769;28;20098;-85
2022/01/18 07:48:33;;;;;;;80.60;7.53;;;2.90;96.70;;;;;;5099018;28;20054;-85
2022/01/18 07:51:07;;;;;;;190.90;10.07;;;2.90;96.70;;;;;;5098831;27;20492;-85
2022/01/18 07:53:44;;;;;;;153.98;9.63;;;2.90;96.60;;;;;;5099427;28;20110;-84
2022/01/18 07:56:31;;;;;;;94.25;8.05;;;2.80;96.40;;;;;;5099685;28;20124;-85
2022/01/18 07:59:23;;;;;;;36.83;6.28;;;2.80;96.50;;;;;;5099731;28;20044;-85
2022/01/18 08:01:59;;;;;;;80.47;8.65;;;2.80;96.60;;;;;;5094807;28;20052;-85
2022/01/18 08:04:38;;;;;;;38.03;8.32;;;2.90;96.60;;;;;;5100623;28;20056;-85
2022/01/18 08:07:18;;;;;;;50.05;7.03;;;2.90;96.60;;;;;;5104140;27;20825;-85
2022/01/18 08:10:08;;;;;;;100.22;9.85;;;2.90;96.50;;;;;;5103499;28;20083;-85
2022/01/18 08:12:38;;;;;;;185.05;12.10;;;2.90;96.60;;;;;;5098554;28;20569;-85
2022/01/18 08:15:27;;;;;;;;;;;3.00;96.50;;;;;;5099186;28;20525;-85
2022/01/18 08:17:59;;;;;;;140.57;8.43;;;3.00;96.50;;;;;;5104128;28;20007;-85
2022/01/18 08:20:36;;;;;;;64.15;5.88;;;3.00;96.40;;;;;;5106548;28;20058;-85
2022/01/18 08:23:06;;;;;;;141.85;10.73;;;3.00;96.40;;;;;;5101173;27;20052;-85
2022/01/18 08:25:35;;;;;;;77.43;7.13;;;3.00;96.40;;;;;;5092567;27;20555;-85
2022/01/18 08:28:24;;;;;;;79.13;7.03;;;3.00;96.50;;;;;;5102827;28;20076;-85
2022/01/18 08:31:31;;;;;;;161.35;8.70;;;3.00;96.60;;;;;;5076994;28;20059;-85
2022/01/18 08:34:24;;;;;;;116.20;7.78;;;3.00;96.50;;;;;;5094615;28;20048;-85
2022/01/18 08:36:57;;;;;;;101.18;8.07;;;3.00;96.50;;;;;;5101756;28;20589;-86
2022/01/18 08:40:35;;;;;;;67.63;7.53;;;3.10;96.50;;;;;;5040072;28;20080;-85
2022/01/18 08:44:13;;;;;;;;;;;;;;;;;;;;;
2022/01/18 08:46:46;;;;;;;110.05;8.13;;;3.10;96.60;;;;;;5042365;28;20052;-86
2022/01/18 08:49:50;;;;;;;159.40;10.10;;;3.10;96.50;;;;;;5083731;28;20056;-86
2022/01/18 08:53:02;;;;;;;271.02;12.48;;;3.10;96.50;;;;;;5065091;28;20045;-86
2022/01/18 08:56:09;;;;;;;207.68;13.13;;;3.10;96.40;;;;;;5044143;28;20201;-85
2022/01/18 08:59:23;;;;;;;190.85;9.30;;;3.10;96.50;;;;;;5021304;28;20059;-85
2022/01/18 09:02:44;;;;;;;240.40;8.68;;;3.10;96.60;;;;;;5047169;28;20974;-85
2022/01/18 09:05:49;;;;;;;139.70;7.85;;;3.10;96.50;;;;;;5058693;28;20156;-85
2022/01/18 09:08:27;;;;;;;;;;;3.10;96.50;;;;;;4999644;28;20129;-85
2022/01/18 09:11:16;;;;;;;116.18;7.47;;;3.00;96.30;;;;;;4990980;28;19933;-85
2022/01/18 09:14:09;;;;;;;155.55;9.10;;;3.00;96.50;;;;;;5001021;28;20054;-85
2022/01/18 09:16:56;;;;;;;253.65;11.18;;;3.00;96.70;;;;;;4999522;28;20509;-85
2022/01/18 09:19:40;;;;;;;179.40;9.70;;;3.00;96.80;;;;;;4997003;28;20622;-85
2022/01/18 09:22:16;;;;;;;220.80;11.45;;;3.10;96.90;;;;;;4995074;28;20059;-85
2022/01/18 09:24:55;;;;;;;236.77;12.38;;;3.30;96.90;;;;;;4996912;28;20054;-85
2022/01/18 09:27:28;;;;;;;190.75;13.02;;;3.30;96.90;;;;;;4999731;28;20058;-85
2022/01/18 09:29:57;;;;;;;187.88;9.05;;;3.40;96.80;;;;;;5028131;28;20053;-85
2022/01/18 09:32:56;;;;;;;140.30;8.07;;;3.30;96.80;;;;;;5049651;28;20050;-85
2022/01/18 09:35:49;;;;;;;122.47;7.95;;;3.30;96.60;;;;;;5046617;28;20203;-84
2022/01/18 09:38:30;;;;;;;126.40;7.38;;;3.30;96.70;;;;;;5049267;28;20045;-84
2022/01/18 09:44:29;;;;;;;205.15;10.30;;;3.40;96.60;;;;;;5052642;28;20080;-85
2022/01/18 09:46:59;;;;;;;125.13;10.30;;;3.50;96.70;;;;;;5102219;28;20151;-85
2022/01/18 09:49:33;;;;;;;231.23;12.57;;;3.60;96.60;;;;;;5101209;28;20060;-85
2022/01/18 09:52:06;;;;;;;66.28;5.97;;;3.70;96.60;;;;;;5098327;27;20057;-85
2022/01/18 09:54:41;;;;;;;120.78;5.97;;;3.60;96.20;;;;;;5108450;28;20747;-84
2022/01/18 09:57:16;;;;;;;99.85;6.95;;;3.60;96.30;;;;;;5100457;28;20052;-86
2022/01/18 09:59:53;;;;;;;163.45;8.73;;;3.60;96.10;;;;;;5104241;27;20137;-84
2022/01/18 10:02:46;;;;;;;166.52;6.85;;;3.50;95.60;;;;;;5098340;28;20052;-84
2022/01/18 10:05:19;;;;;;;74.28;5.55;;;3.50;95.90;;;;;;5100943;28;20052;-84
2022/01/18 10:08:16;;;;;;;129.80;6.47;;;3.60;96.20;;;;;;5103609;28;20563;-84
2022/01/18 10:11:06;;;;;;;204.75;8.25;;;3.80;96.30;;;;;;5104551;28;20056;-84
2022/01/18 10:13:50;;;;;;;226.88;10.00;;;3.80;96.00;;;;;;5097552;28;20055;-84
2022/01/18 10:16:28;;;;;;;163.77;8.98;;;3.70;95.60;;;;;;5107707;28;20094;-84
2022/01/18 10:19:15;;;;;;;103.20;8.68;;;3.70;95.80;;;;;;5102136;28;20511;-84
2022/01/18 10:21:49;;;;;;;114.47;9.68;;;3.70;96.10;;;;;;5104201;28;20044;-84
2022/01/18 10:24:31;;;;;;;52.72;9.25;;;3.80;96.20;;;;;;5101827;28;20135;-84
2022/01/18 10:27:32;;;;;;;175.57;12.65;;;3.90;96.30;;;;;;5105984;28;20063;-84
2022/01/18 10:30:05;;;;;;;192.85;12.82;;;3.90;96.20;;;;;;5068343;28;20087;-84
2022/01/18 10:33:18;;;;;;;39.80;8.43;;;3.80;96.20;;;;;;5106032;28;20047;-84
2022/01/18 10:36:11;;;;;;;55.67;9.68;;;3.90;96.30;;;;;;5102536;28;20063;-84
2022/01/18 10:38:58;;;;;;;81.32;10.68;;;3.80;96.10;;;;;;5098814;28;20141;-84
2022/01/18 10:41:50;;;;;;;171.73;10.48;;;3.90;96.40;;;;;;5093201;28;20162;-84
2022/01/18 10:44:30;;;;;;;79.13;9.15;;;3.90;96.40;;;;;;5096511;28;20960;-84
2022/01/18 10:47:06;;;;;;;141.63;9.63;;;4.00;96.60;;;;;;5098170;28;20136;-84
2022/01/18 10:49:59;;;;;;;96.75;9.77;;;4.00;96.60;;;;;;5097285;28;20048;-85
2022/01/18 10:52:43;;;;;;;91.75;9.40;;;4.20;96.70;;;;;;5089882;28;20078;-84
2022/01/18 10:55:22;;;;;;;189.10;12.45;;;4.30;96.70;;;;;;5095077;28;20056;-84
2022/01/18 10:58:15;;;;;;;91.65;9.15;;;4.20;96.20;;;;;;5102002;28;20435;-84
2022/01/18 11:00:53;;;;;;;138.55;11.02;;;4.20;95.90;;;;;;5100959;28;20074;-84
2022/01/18 11:04:13;;;;;;;126.18;9.63;;;4.20;96.10;;;;;;5095739;28;20877;-84
2022/01/18 11:07:14;;;;;;;110.30;10.10;;;4.30;96.30;;;;;;5098569;28;20114;-84
2022/01/18 11:09:44;;;;;;;150.93;14.20;;;4.40;96.40;;;;;;5102153;28;20481;-85
2022/01/18 11:12:20;;;;;;;94.80;12.38;;;4.40;96.20;;;;;;5096698;28;20140;-85
2022/01/18 11:15:05;;;;;;;150.05;13.00;;;4.50;96.30;;;;;;5097502;28;20052;-85
2022/01/18 11:17:50;;;;;;;54.70;10.57;;;4.50;96.00;;;;;;5096953;28;20045;-85
2022/01/18 11:20:33;;;;;;;74.50;12.18;;;4.40;96.00;;;;;;5102642;28;20095;-85
2022/01/18 11:23:04;;;;;;;58.83;9.23;;;4.40;96.10;;;;;;5099864;28;20059;-85
2022/01/18 11:25:47;;;;;;;53.20;9.93;;;4.60;96.30;;;;;;5097025;28;20058;-85
2022/01/18 11:28:15;;;;;;;85.80;9.55;;;4.60;96.30;;;;;;5100771;28;20044;-85
2022/01/18 11:30:47;;;;;;;98.75;9.73;;;4.70;96.10;;;;;;5100452;28;20519;-85
2022/01/18 11:33:34;;;;;;;74.93;10.25;;;4.70;96.00;;;;;;5098717;27;20426;-85
2022/01/18 11:36:32;;;;;;;64.45;9.35;;;4.60;95.90;;;;;;5105807;28;20048;-85
2022/01/18 11:39:11;;;;;;;42.22;8.45;;;4.70;96.10;;;;;;5102772;28;20048;-85
2022/01/18 11:41:42;;;;;;;45.92;8.98;;;4.70;96.20;;;;;;5093314;28;20056;-85
2022/01/18 11:44:17;;;;;;;28.65;9.07;;;4.80;96.50;;;;;;5098453;28;20558;-85
2022/01/18 11:47:01;;;;;;;30.35;8.20;;;4.90;96.50;;;;;;5105172;28;20055;-85
2022/01/18 11:49:53;;;;;;;30.93;8.60;;;5.00;96.50;;;;;;5102532;28;20098;-85
2022/01/18 11:52:35;;;;;;;54.35;9.40;;;5.00;96.40;;;;;;5101481;28;20151;-85
2022/01/18 11:55:45;;;;;;;70.95;9.68;;;5.10;96.30;;;;;;5095782;28;20143;-85
2022/01/18 11:58:43;;;;;;;57.33;9.18;;;5.10;96.10;;;;;;5103379;27;20086;-85
2022/01/18 12:01:16;;;;;;;23.92;7.30;;;5.10;95.90;;;;;;5106357;27;20940;-86
2022/01/18 12:03:55;;;;;;;87.18;8.90;;;5.20;96.10;;;;;;5110002;28;20127;-86
2022/01/18 12:06:50;;;;;;;58.33;8.82;;;5.20;96.00;;;;;;5109063;28;20052;-86
2022/01/18 12:09:47;;;;;;;28.13;7.95;;;5.00;95.40;;;;;;5110632;28;20087;-86
2022/01/18 12:12:45;;;;;;;24.23;7.60;;;5.10;95.80;;;;;;5105057;28;20048;-86
2022/01/18 12:15:22;;;;;;;51.90;7.38;;;5.20;96.00;;;;;;5104774;28;20055;-86
2022/01/18 12:17:50;;;;;;;53.97;8.57;;;5.30;95.80;;;;;;5117363;28;20056;-86
2022/01/18 12:20:43;;;;;;;71.03;8.00;;;5.30;95.70;;;;;;5109030;28;20082;-86
2022/01/18 12:23:24;;;;;;;69.55;6.88;;;5.20;95.10;;;;;;5112772;28;20082;-86
2022/01/18 12:34:43;;;;;;;61.53;8.75;;;5.00;95.40;;;;;;5096928;28;20057;-87
2022/01/18 12:37:30;;;;;;;76.35;9.10;;;5.10;95.80;;;;;;5095954;28;20057;-85
2022/01/18 12:45:22;;;;;;;79.63;11.32;;;5.20;95.60;;;;;;5097316;28;20119;-84
2022/01/18 12:48:01;;;;;;;119.38;14.20;;;5.20;95.50;;;;;;5102614;27;20076;-85
2022/01/18 12:50:34;;;;;;;63.63;13.48;;;5.30;95.40;;;;;;5096695;28;20503;-85
2022/01/18 12:53:13;;;;;;;68.00;15.20;;;5.30;95.60;;;;;;5117801;27;20409;-84
2022/01/18 12:55:46;;;;;;;51.03;15.10;;;5.30;95.50;;;;;;5100352;28;20045;-84
2022/01/18 12:58:25;;;;;;;86.68;18.30;;;5.30;95.60;;;;;;5105520;27;20817;-84
2022/01/18 13:00:56;;;;;;;73.85;17.80;;;5.40;95.60;;;;;;5102264;28;20074;-84
2022/01/18 13:03:28;;;;;;;93.72;21.25;;;5.30;95.20;;;;;;5092628;28;20053;-84
2022/01/18 13:05:57;;;;;;;84.38;21.83;;;5.40;95.40;;;;;;5100649;28;20079;-84
2022/01/18 13:08:29;;;;;;;83.88;22.33;;;5.40;95.40;;;;;;5110664;28;20055;-84
2022/01/18 13:11:08;;;;;;;83.93;22.52;;;5.40;95.50;;;;;;5097791;28;20052;-85
2022/01/18 13:13:35;;;;;;;86.95;21.17;;;5.50;95.60;;;;;;5098565;27;20056;-84
2022/01/18 13:25:02;;;;;;;67.15;19.38;;;5.60;94.90;;;;;;5096548;28;20041;-84
2022/01/18 13:27:44;;;;;;;73.00;22.55;;;5.60;95.00;;;;;;5096609;28;20533;-84
2022/01/18 13:30:27;;;;;;;70.50;18.60;;;5.70;95.00;;;;;;5093908;28;20060;-85
2022/01/18 13:32:58;;;;;;;73.35;21.33;;;5.70;94.90;;;;;;5103089;28;20098;-84
2022/01/18 13:35:30;;;;;;;87.43;22.20;;;5.70;94.90;;;;;;5102159;28;20061;-85
2022/01/18 13:37:59;;;;;;;72.88;20.45;;;5.80;95.10;;;;;;5091883;28;20110;-84
2022/01/18 13:40:29;;;;;;;58.08;17.92;;;5.80;95.10;;;;;;5098786;28;20052;-84
2022/01/18 13:43:15;;;;;;;59.03;18.15;;;5.80;94.50;;;;;;5101978;28;20491;-84
2022/01/18 13:45:45;;;;;;;75.00;21.42;;;5.90;94.50;;;;;;5101116;28;20196;-84
2022/01/18 13:48:14;;;;;;;76.25;19.75;;;6.00;94.50;;;;;;5101411;28;20755;-84
2022/01/18 13:51:00;;;;;;;86.40;20.60;;;5.90;94.10;;;;;;5104457;28;20058;-85
2022/01/18 13:53:34;;;;;;;64.68;16.52;;;6.00;94.50;;;;;;5091563;28;20523;-85
2022/01/18 13:56:11;;;;;;;70.43;19.50;;;6.00;94.80;;;;;;5098117;28;20135;-85
2022/01/18 13:59:00;;;;;;;65.53;17.92;;;6.00;94.50;;;;;;5099413;28;20059;-85
2022/01/18 14:01:38;;;;;;;59.58;17.08;;;6.10;94.50;;;;;;5092106;28;20182;-84
2022/01/18 14:04:25;;;;;;;68.00;17.45;;;6.00;94.20;;;;;;5097661;28;20055;-85
2022/01/18 14:06:56;;;;;;;66.75;17.10;;;6.00;94.10;;;;;;5092904;28;21733;-84
2022/01/18 14:09:36;;;;;;;66.43;17.48;;;6.00;94.10;;;;;;5097202;28;20059;-84
2022/01/18 14:12:28;;;;;;;72.22;17.83;;;6.00;94.00;;;;;;5100873;27;20053;-85
2022/01/18 14:15:00;;;;;;;71.25;17.67;;;6.10;94.10;;;;;;5103271;28;20058;-84
2022/01/18 14:18:00;;;;;;;59.17;17.60;;;6.20;94.20;;;;;;5099148;27;20052;-84
2022/01/18 14:20:44;;;;;;;61.38;17.73;;;6.10;94.00;;;;;;5098437;28;20056;-84
2022/01/18 14:23:29;;;;;;;73.15;17.20;;;6.10;93.70;;;;;;5104531;28;20114;-84
2022/01/18 14:26:18;;;;;;;54.00;14.20;;;6.10;93.70;;;;;;5101162;28;20060;-86
2022/01/18 14:29:14;;;;;;;59.17;15.98;;;6.10;93.60;;;;;;5102952;28;20052;-84
2022/01/18 14:31:42;;;;;;;54.63;16.52;;;6.10;92.80;;;;;;5099819;28;20514;-84
2022/01/18 14:34:39;;;;;;;57.20;16.38;;;6.10;93.30;;;;;;5104859;28;20044;-84
2022/01/18 14:37:18;;;;;;;63.03;15.23;;;6.20;93.40;;;;;;5102370;28;20052;-84
2022/01/18 14:40:27;;;;;;;57.83;15.65;;;6.20;92.40;;;;;;5099129;28;20121;-84
2022/01/18 14:43:26;;;;;;;62.50;16.65;;;6.20;92.90;;;;;;5067553;28;20092;-84
2022/01/18 14:46:47;;;;;;;58.63;17.50;;;6.10;92.90;;;;;;5103035;27;20529;-84
2022/01/18 14:49:40;;;;;;;56.83;15.30;;;6.10;92.10;;;;;;5106723;28;20048;-85
2022/01/18 14:52:15;;;;;;;56.92;16.20;;;6.00;92.10;;;;;;5100385;28;20055;-85
2022/01/18 14:54:51;;;;;;;55.33;14.82;;;6.10;92.80;;;;;;5095571;28;20059;-84
2022/01/18 14:57:26;;;;;;;65.50;16.25;;;6.10;92.90;;;;;;5101268;28;20087;-84
2022/01/18 14:59:59;;;;;;;49.60;16.02;;;6.10;92.90;;;;;;5105987;27;20059;-84
2022/01/18 15:02:26;;;;;;;54.88;15.27;;;6.20;92.90;;;;;;5102100;28;20124;-84
2022/01/18 15:05:06;;;;;;;56.78;15.35;;;6.20;92.90;;;;;;5102741;27;20103;-85
2022/01/18 15:07:39;;;;;;;53.65;15.32;;;6.20;92.90;;;;;;5098282;27;20056;-84
2022/01/18 15:10:10;;;;;;;64.70;15.82;;;6.20;92.80;;;;;;5102233;28;20053;-85
2022/01/18 15:12:39;;;;;;;59.58;16.75;;;6.10;92.50;;;;;;5103941;28;20098;-84
2022/01/18 15:15:08;;;;;;;66.50;17.40;;;6.10;92.80;;;;;;5103239;28;20047;-84
2022/01/18 15:17:38;;;;;;;62.20;17.52;;;6.10;92.90;;;;;;5099958;28;20059;-84